EGPU - Tiree
Distance from station: E 5mi, 14km
Updated: 12/18/2017 6:20am
Mostly Cloudy
Mostly Cloudy
 Wind from S
Wind: S 14 mph , 22 km/h
Temperature: 48°F , 9°C
Wind Chill: 42°F , 6°C
Dew Point: 45°F , 7°C
Humidity: 87%
Barometer: 30.27 inHg , 1025 hPa
Clouds: Mostly Cloudy
Visibility: 6 miles , 10 km
Cloud details: Mostly Cloudy 1100 ft
2017/12/18 14:20 EGPU 181420Z 19012KT 9999 BKN011 09/07 Q1025